sensor_id;sensor_type;location;lat;lon;timestamp;P1;durP1;ratioP1;P2;durP2;ratioP2
67749;SDS011;54550;48.838;8.828;2022-08-19T00:51:19;30.40;;;23.80;;
67749;SDS011;54550;48.838;8.828;2022-08-19T00:53:47;33.00;;;22.33;;
67749;SDS011;54550;48.838;8.828;2022-08-19T00:56:13;43.30;;;22.10;;
67749;SDS011;54550;48.838;8.828;2022-08-19T01:14:10;32.50;;;22.90;;
67749;SDS011;54550;48.838;8.828;2022-08-19T01:16:36;34.40;;;23.83;;
67749;SDS011;54550;48.838;8.828;2022-08-19T01:19:03;31.03;;;21.60;;
67749;SDS011;54550;48.838;8.828;2022-08-19T01:34:29;30.40;;;22.30;;
67749;SDS011;54550;48.838;8.828;2022-08-19T01:49:55;32.00;;;22.30;;
67749;SDS011;54550;48.838;8.828;2022-08-19T01:52:21;33.13;;;24.13;;
67749;SDS011;54550;48.838;8.828;2022-08-19T01:57:22;36.93;;;23.57;;
67749;SDS011;54550;48.838;8.828;2022-08-19T02:02:24;36.23;;;25.37;;
67749;SDS011;54550;48.838;8.828;2022-08-19T02:09:49;38.63;;;24.30;;
67749;SDS011;54550;48.838;8.828;2022-08-19T02:14:43;31.37;;;23.20;;
67749;SDS011;54550;48.838;8.828;2022-08-19T02:17:19;43.97;;;24.97;;
67749;SDS011;54550;48.838;8.828;2022-08-19T02:22:21;32.60;;;23.10;;
67749;SDS011;54550;48.838;8.828;2022-08-19T02:24:47;38.13;;;25.20;;
67749;SDS011;54550;48.838;8.828;2022-08-19T02:29:41;39.47;;;26.40;;
67749;SDS011;54550;48.838;8.828;2022-08-19T02:32:07;32.67;;;23.63;;
67749;SDS011;54550;48.838;8.828;2022-08-19T02:40:03;30.93;;;24.37;;
67749;SDS011;54550;48.838;8.828;2022-08-19T02:45:05;41.80;;;25.87;;
67749;SDS011;54550;48.838;8.828;2022-08-19T03:03:07;40.33;;;31.30;;
67749;SDS011;54550;48.838;8.828;2022-08-19T03:05:33;41.40;;;31.57;;
67749;SDS011;54550;48.838;8.828;2022-08-19T03:15:47;38.40;;;28.43;;
67749;SDS011;54550;48.838;8.828;2022-08-19T03:26:04;40.57;;;29.47;;
67749;SDS011;54550;48.838;8.828;2022-08-19T03:28:31;45.47;;;29.77;;
67749;SDS011;54550;48.838;8.828;2022-08-19T03:31:16;51.43;;;32.43;;
67749;SDS011;54550;48.838;8.828;2022-08-19T03:33:43;44.53;;;32.07;;
67749;SDS011;54550;48.838;8.828;2022-08-19T03:41:32;55.27;;;31.70;;
67749;SDS011;54550;48.838;8.828;2022-08-19T03:43:58;42.60;;;29.60;;
67749;SDS011;54550;48.838;8.828;2022-08-19T03:46:25;41.73;;;31.00;;
67749;SDS011;54550;48.838;8.828;2022-08-19T03:48:52;41.43;;;32.50;;
67749;SDS011;54550;48.838;8.828;2022-08-19T03:51:23;41.00;;;30.97;;
67749;SDS011;54550;48.838;8.828;2022-08-19T03:53:50;45.00;;;33.20;;
67749;SDS011;54550;48.838;8.828;2022-08-19T03:56:16;42.87;;;31.80;;
67749;SDS011;54550;48.838;8.828;2022-08-19T03:58:42;50.90;;;31.60;;
67749;SDS011;54550;48.838;8.828;2022-08-19T04:01:12;46.13;;;32.37;;
67749;SDS011;54550;48.838;8.828;2022-08-19T04:03:38;43.20;;;30.43;;
67749;SDS011;54550;48.838;8.828;2022-08-19T04:06:14;45.07;;;33.23;;
67749;SDS011;54550;48.838;8.828;2022-08-19T04:08:40;44.00;;;32.70;;
67749;SDS011;54550;48.838;8.828;2022-08-19T04:11:08;47.83;;;34.37;;
67749;SDS011;54550;48.838;8.828;2022-08-19T04:13:34;45.60;;;33.20;;
67749;SDS011;54550;48.838;8.828;2022-08-19T04:16:00;48.63;;;33.40;;
67749;SDS011;54550;48.838;8.828;2022-08-19T04:18:26;44.47;;;31.27;;
67749;SDS011;54550;48.838;8.828;2022-08-19T04:20:54;48.30;;;31.80;;
67749;SDS011;54550;48.838;8.828;2022-08-19T04:23:20;46.10;;;34.13;;
67749;SDS011;54550;48.838;8.828;2022-08-19T04:25:46;50.60;;;36.20;;
67749;SDS011;54550;48.838;8.828;2022-08-19T04:28:12;50.33;;;35.13;;
67749;SDS011;54550;48.838;8.828;2022-08-19T04:30:42;50.43;;;36.20;;
67749;SDS011;54550;48.838;8.828;2022-08-19T04:33:08;48.93;;;33.87;;
67749;SDS011;54550;48.838;8.828;2022-08-19T04:35:36;53.93;;;35.63;;
67749;SDS011;54550;48.838;8.828;2022-08-19T04:38:02;46.50;;;35.10;;
67749;SDS011;54550;48.838;8.828;2022-08-19T04:40:29;51.50;;;34.73;;
67749;SDS011;54550;48.838;8.828;2022-08-19T04:43:13;49.60;;;33.50;;
67749;SDS011;54550;48.838;8.828;2022-08-19T04:45:40;48.37;;;33.80;;
67749;SDS011;54550;48.838;8.828;2022-08-19T04:48:07;50.03;;;32.60;;
67749;SDS011;54550;48.838;8.828;2022-08-19T04:50:33;43.73;;;33.43;;
67749;SDS011;54550;48.838;8.828;2022-08-19T04:52:59;47.83;;;35.40;;
67749;SDS011;54550;48.838;8.828;2022-08-19T04:55:25;47.50;;;33.23;;
67749;SDS011;54550;48.838;8.828;2022-08-19T04:57:51;49.67;;;32.47;;
67749;SDS011;54550;48.838;8.828;2022-08-19T05:00:17;54.17;;;32.63;;
67749;SDS011;54550;48.838;8.828;2022-08-19T05:02:43;44.13;;;32.30;;
67749;SDS011;54550;48.838;8.828;2022-08-19T05:05:09;44.10;;;33.87;;
67749;SDS011;54550;48.838;8.828;2022-08-19T05:07:35;55.30;;;34.70;;
67749;SDS011;54550;48.838;8.828;2022-08-19T05:10:02;46.30;;;34.47;;
67749;SDS011;54550;48.838;8.828;2022-08-19T05:12:30;43.77;;;32.70;;
67749;SDS011;54550;48.838;8.828;2022-08-19T05:14:57;49.77;;;32.43;;
67749;SDS011;54550;48.838;8.828;2022-08-19T05:17:24;45.17;;;31.60;;
67749;SDS011;54550;48.838;8.828;2022-08-19T05:19:50;46.20;;;34.63;;
67749;SDS011;54550;48.838;8.828;2022-08-19T05:22:35;46.33;;;30.60;;
67749;SDS011;54550;48.838;8.828;2022-08-19T05:25:03;47.90;;;32.17;;
67749;SDS011;54550;48.838;8.828;2022-08-19T05:27:29;47.30;;;33.77;;
67749;SDS011;54550;48.838;8.828;2022-08-19T05:29:55;47.67;;;32.03;;
67749;SDS011;54550;48.838;8.828;2022-08-19T05:32:21;41.03;;;30.37;;
67749;SDS011;54550;48.838;8.828;2022-08-19T05:34:48;42.43;;;32.57;;
67749;SDS011;54550;48.838;8.828;2022-08-19T05:37:14;40.83;;;31.20;;
67749;SDS011;54550;48.838;8.828;2022-08-19T05:39:40;42.30;;;30.70;;
67749;SDS011;54550;48.838;8.828;2022-08-19T05:42:08;41.30;;;29.57;;
67749;SDS011;54550;48.838;8.828;2022-08-19T05:44:36;42.60;;;30.40;;
67749;SDS011;54550;48.838;8.828;2022-08-19T05:47:03;43.17;;;33.43;;
67749;SDS011;54550;48.838;8.828;2022-08-19T05:49:29;39.90;;;30.07;;
67749;SDS011;54550;48.838;8.828;2022-08-19T05:51:56;44.93;;;31.90;;
67749;SDS011;54550;48.838;8.828;2022-08-19T05:54:22;45.53;;;30.67;;
67749;SDS011;54550;48.838;8.828;2022-08-19T05:56:49;42.27;;;30.47;;
67749;SDS011;54550;48.838;8.828;2022-08-19T06:01:52;39.90;;;31.50;;
67749;SDS011;54550;48.838;8.828;2022-08-19T06:06:56;43.70;;;27.80;;
67749;SDS011;54550;48.838;8.828;2022-08-19T06:09:23;38.67;;;28.53;;
67749;SDS011;54550;48.838;8.828;2022-08-19T06:11:50;34.10;;;27.17;;
67749;SDS011;54550;48.838;8.828;2022-08-19T06:14:21;45.17;;;29.93;;
67749;SDS011;54550;48.838;8.828;2022-08-19T06:16:47;40.73;;;30.80;;
67749;SDS011;54550;48.838;8.828;2022-08-19T06:19:14;37.00;;;27.37;;
67749;SDS011;54550;48.838;8.828;2022-08-19T06:21:42;41.53;;;28.77;;
67749;SDS011;54550;48.838;8.828;2022-08-19T06:24:10;37.60;;;28.47;;
67749;SDS011;54550;48.838;8.828;2022-08-19T06:26:37;39.93;;;28.50;;
67749;SDS011;54550;48.838;8.828;2022-08-19T06:29:04;38.50;;;27.67;;
67749;SDS011;54550;48.838;8.828;2022-08-19T06:31:31;37.10;;;25.50;;
67749;SDS011;54550;48.838;8.828;2022-08-19T06:33:58;34.23;;;27.57;;
67749;SDS011;54550;48.838;8.828;2022-08-19T06:36:26;41.33;;;26.07;;
67749;SDS011;54550;48.838;8.828;2022-08-19T06:39:03;36.27;;;26.33;;
67749;SDS011;54550;48.838;8.828;2022-08-19T06:41:30;36.10;;;28.63;;
67749;SDS011;54550;48.838;8.828;2022-08-19T06:43:56;33.90;;;25.83;;
67749;SDS011;54550;48.838;8.828;2022-08-19T06:46:22;35.83;;;25.80;;
67749;SDS011;54550;48.838;8.828;2022-08-19T06:48:48;38.73;;;26.23;;
67749;SDS011;54550;48.838;8.828;2022-08-19T06:51:16;34.73;;;26.43;;
67749;SDS011;54550;48.838;8.828;2022-08-19T06:53:44;34.90;;;24.43;;
67749;SDS011;54550;48.838;8.828;2022-08-19T06:56:12;39.13;;;25.87;;
67749;SDS011;54550;48.838;8.828;2022-08-19T06:58:38;35.37;;;27.57;;
67749;SDS011;54550;48.838;8.828;2022-08-19T07:01:04;35.40;;;28.00;;
67749;SDS011;54550;48.838;8.828;2022-08-19T07:03:31;41.93;;;27.90;;
67749;SDS011;54550;48.838;8.828;2022-08-19T07:06:02;34.20;;;25.53;;
67749;SDS011;54550;48.838;8.828;2022-08-19T07:08:28;32.50;;;26.40;;
67749;SDS011;54550;48.838;8.828;2022-08-19T07:10:54;36.50;;;26.33;;
67749;SDS011;54550;48.838;8.828;2022-08-19T07:13:21;35.00;;;26.53;;
67749;SDS011;54550;48.838;8.828;2022-08-19T07:15:47;35.47;;;26.20;;
67749;SDS011;54550;48.838;8.828;2022-08-19T07:18:17;36.97;;;27.30;;
67749;SDS011;54550;48.838;8.828;2022-08-19T07:20:43;32.37;;;24.33;;
67749;SDS011;54550;48.838;8.828;2022-08-19T07:23:09;36.23;;;24.00;;
67749;SDS011;54550;48.838;8.828;2022-08-19T07:25:36;32.00;;;23.83;;
67749;SDS011;54550;48.838;8.828;2022-08-19T07:28:02;32.10;;;25.90;;
67749;SDS011;54550;48.838;8.828;2022-08-19T07:30:28;31.80;;;25.20;;
67749;SDS011;54550;48.838;8.828;2022-08-19T07:35:23;32.83;;;25.00;;
67749;SDS011;54550;48.838;8.828;2022-08-19T07:37:49;30.03;;;22.60;;
67749;SDS011;54550;48.838;8.828;2022-08-19T07:40:15;33.33;;;24.73;;
67749;SDS011;54550;48.838;8.828;2022-08-19T07:42:41;32.37;;;23.50;;
67749;SDS011;54550;48.838;8.828;2022-08-19T07:45:08;30.33;;;23.23;;
67749;SDS011;54550;48.838;8.828;2022-08-19T07:50:10;33.80;;;23.00;;
67749;SDS011;54550;48.838;8.828;2022-08-19T07:52:37;29.87;;;22.07;;
67749;SDS011;54550;48.838;8.828;2022-08-19T07:55:09;27.50;;;21.23;;
67749;SDS011;54550;48.838;8.828;2022-08-19T07:57:35;29.23;;;22.63;;
67749;SDS011;54550;48.838;8.828;2022-08-19T08:00:02;27.53;;;21.27;;
67749;SDS011;54550;48.838;8.828;2022-08-19T08:02:29;32.37;;;21.37;;
67749;SDS011;54550;48.838;8.828;2022-08-19T08:07:26;24.00;;;19.10;;
67749;SDS011;54550;48.838;8.828;2022-08-19T08:10:11;24.10;;;19.97;;
67749;SDS011;54550;48.838;8.828;2022-08-19T08:12:38;29.70;;;21.90;;
67749;SDS011;54550;48.838;8.828;2022-08-19T08:17:42;23.97;;;20.47;;
67749;SDS011;54550;48.838;8.828;2022-08-19T08:27:48;29.77;;;21.37;;
67749;SDS011;54550;48.838;8.828;2022-08-19T08:30:21;30.53;;;19.47;;
67749;SDS011;54550;48.838;8.828;2022-08-19T08:32:47;22.47;;;18.10;;
67749;SDS011;54550;48.838;8.828;2022-08-19T08:35:15;24.80;;;18.83;;
67749;SDS011;54550;48.838;8.828;2022-08-19T08:37:42;25.17;;;20.20;;
67749;SDS011;54550;48.838;8.828;2022-08-19T08:53:08;26.33;;;20.13;;
67749;SDS011;54550;48.838;8.828;2022-08-19T09:00:37;26.57;;;19.20;;
67749;SDS011;54550;48.838;8.828;2022-08-19T09:16:00;24.30;;;17.97;;
67749;SDS011;54550;48.838;8.828;2022-08-19T09:23:32;33.40;;;18.63;;
67749;SDS011;54550;48.838;8.828;2022-08-19T09:25:58;24.20;;;16.30;;
67749;SDS011;54550;48.838;8.828;2022-08-19T09:30:54;22.63;;;17.90;;
67749;SDS011;54550;48.838;8.828;2022-08-19T09:33:20;24.17;;;19.03;;
67749;SDS011;54550;48.838;8.828;2022-08-19T09:38:15;22.23;;;17.57;;
67749;SDS011;54550;48.838;8.828;2022-08-19T09:53:37;20.97;;;15.70;;
67749;SDS011;54550;48.838;8.828;2022-08-19T09:56:04;30.87;;;15.13;;
67749;SDS011;54550;48.838;8.828;2022-08-19T09:58:31;26.73;;;15.80;;
67749;SDS011;54550;48.838;8.828;2022-08-19T10:00:58;22.10;;;13.80;;
67749;SDS011;54550;48.838;8.828;2022-08-19T10:03:24;25.23;;;14.43;;
67749;SDS011;54550;48.838;8.828;2022-08-19T10:05:51;16.30;;;14.27;;
67749;SDS011;54550;48.838;8.828;2022-08-19T10:08:18;26.03;;;15.30;;
67749;SDS011;54550;48.838;8.828;2022-08-19T10:10:45;38.93;;;16.27;;
67749;SDS011;54550;48.838;8.828;2022-08-19T10:15:47;23.93;;;15.87;;
67749;SDS011;54550;48.838;8.828;2022-08-19T10:20:51;18.07;;;15.50;;
67749;SDS011;54550;48.838;8.828;2022-08-19T10:25:53;19.80;;;14.85;;
67749;SDS011;54550;48.838;8.828;2022-08-19T10:30:55;23.40;;;15.63;;
67749;SDS011;54550;48.838;8.828;2022-08-19T10:33:21;19.27;;;14.07;;
67749;SDS011;54550;48.838;8.828;2022-08-19T10:35:49;18.47;;;13.60;;
67749;SDS011;54550;48.838;8.828;2022-08-19T10:38:24;20.63;;;14.10;;
67749;SDS011;54550;48.838;8.828;2022-08-19T10:40:50;19.23;;;14.67;;
67749;SDS011;54550;48.838;8.828;2022-08-19T10:43:17;18.50;;;13.30;;
67749;SDS011;54550;48.838;8.828;2022-08-19T10:45:48;15.80;;;11.90;;
67749;SDS011;54550;48.838;8.828;2022-08-19T10:48:14;13.93;;;10.67;;
67749;SDS011;54550;48.838;8.828;2022-08-19T10:50:41;16.93;;;10.87;;
67749;SDS011;54550;48.838;8.828;2022-08-19T10:53:26;20.90;;;12.77;;
67749;SDS011;54550;48.838;8.828;2022-08-19T10:55:52;20.60;;;11.70;;
67749;SDS011;54550;48.838;8.828;2022-08-19T10:58:37;12.97;;;11.33;;
67749;SDS011;54550;48.838;8.828;2022-08-19T11:01:03;17.50;;;11.43;;
67749;SDS011;54550;48.838;8.828;2022-08-19T11:03:29;18.40;;;10.20;;
67749;SDS011;54550;48.838;8.828;2022-08-19T11:05:59;15.23;;;10.50;;
67749;SDS011;54550;48.838;8.828;2022-08-19T11:08:26;12.13;;;9.60;;
67749;SDS011;54550;48.838;8.828;2022-08-19T11:10:53;14.17;;;9.90;;
67749;SDS011;54550;48.838;8.828;2022-08-19T11:13:26;11.73;;;9.60;;
67749;SDS011;54550;48.838;8.828;2022-08-19T11:16:00;12.43;;;8.90;;
67749;SDS011;54550;48.838;8.828;2022-08-19T11:18:26;16.53;;;9.77;;
67749;SDS011;54550;48.838;8.828;2022-08-19T11:20:52;9.57;;;6.50;;
67749;SDS011;54550;48.838;8.828;2022-08-19T11:23:18;10.97;;;7.30;;
67749;SDS011;54550;48.838;8.828;2022-08-19T11:25:45;14.47;;;5.83;;
67749;SDS011;54550;48.838;8.828;2022-08-19T11:28:11;19.57;;;6.00;;
67749;SDS011;54550;48.838;8.828;2022-08-19T11:30:37;6.03;;;5.37;;
67749;SDS011;54550;48.838;8.828;2022-08-19T11:33:04;12.10;;;8.93;;
67749;SDS011;54550;48.838;8.828;2022-08-19T11:35:30;10.43;;;7.70;;
67749;SDS011;54550;48.838;8.828;2022-08-19T11:37:57;13.13;;;7.63;;
67749;SDS011;54550;48.838;8.828;2022-08-19T11:40:26;9.63;;;7.27;;
67749;SDS011;54550;48.838;8.828;2022-08-19T11:42:52;11.87;;;7.00;;
67749;SDS011;54550;48.838;8.828;2022-08-19T11:45:21;9.30;;;6.37;;
67749;SDS011;54550;48.838;8.828;2022-08-19T11:47:47;11.57;;;6.60;;
67749;SDS011;54550;48.838;8.828;2022-08-19T11:50:13;5.87;;;5.20;;
67749;SDS011;54550;48.838;8.828;2022-08-19T11:52:42;10.60;;;6.70;;
67749;SDS011;54550;48.838;8.828;2022-08-19T11:55:10;12.70;;;5.77;;
67749;SDS011;54550;48.838;8.828;2022-08-19T11:57:36;5.60;;;5.10;;
67749;SDS011;54550;48.838;8.828;2022-08-19T12:00:03;6.63;;;5.77;;
67749;SDS011;54550;48.838;8.828;2022-08-19T12:02:31;6.67;;;5.90;;
67749;SDS011;54550;48.838;8.828;2022-08-19T12:04:57;15.20;;;6.60;;
67749;SDS011;54550;48.838;8.828;2022-08-19T12:07:26;7.43;;;5.17;;
67749;SDS011;54550;48.838;8.828;2022-08-19T12:09:53;13.73;;;7.50;;
67749;SDS011;54550;48.838;8.828;2022-08-19T12:12:19;9.33;;;5.37;;
67749;SDS011;54550;48.838;8.828;2022-08-19T12:14:46;10.30;;;5.60;;
67749;SDS011;54550;48.838;8.828;2022-08-19T12:17:17;8.10;;;5.00;;
67749;SDS011;54550;48.838;8.828;2022-08-19T12:19:42;10.60;;;5.30;;
67749;SDS011;54550;48.838;8.828;2022-08-19T12:22:09;8.33;;;5.47;;
67749;SDS011;54550;48.838;8.828;2022-08-19T12:24:37;8.00;;;5.20;;
67749;SDS011;54550;48.838;8.828;2022-08-19T12:27:03;6.37;;;4.60;;
67749;SDS011;54550;48.838;8.828;2022-08-19T12:29:29;6.57;;;4.30;;
67749;SDS011;54550;48.838;8.828;2022-08-19T12:31:56;5.73;;;5.00;;
67749;SDS011;54550;48.838;8.828;2022-08-19T12:34:26;8.53;;;4.93;;
67749;SDS011;54550;48.838;8.828;2022-08-19T12:36:54;7.60;;;4.70;;
67749;SDS011;54550;48.838;8.828;2022-08-19T12:39:20;6.73;;;5.57;;
67749;SDS011;54550;48.838;8.828;2022-08-19T12:41:46;5.93;;;4.57;;
67749;SDS011;54550;48.838;8.828;2022-08-19T12:44:14;6.07;;;5.03;;
67749;SDS011;54550;48.838;8.828;2022-08-19T12:49:09;8.57;;;4.63;;
67749;SDS011;54550;48.838;8.828;2022-08-19T12:51:35;6.60;;;4.40;;
67749;SDS011;54550;48.838;8.828;2022-08-19T12:54:01;7.80;;;4.70;;
67749;SDS011;54550;48.838;8.828;2022-08-19T12:58:56;10.40;;;4.70;;
67749;SDS011;54550;48.838;8.828;2022-08-19T13:01:25;8.77;;;5.50;;
67749;SDS011;54550;48.838;8.828;2022-08-19T13:03:52;7.97;;;5.63;;
67749;SDS011;54550;48.838;8.828;2022-08-19T13:06:18;6.27;;;5.60;;
67749;SDS011;54550;48.838;8.828;2022-08-19T13:08:44;6.17;;;5.00;;
67749;SDS011;54550;48.838;8.828;2022-08-19T13:11:11;8.30;;;5.73;;
67749;SDS011;54550;48.838;8.828;2022-08-19T13:13:41;7.37;;;6.67;;
67749;SDS011;54550;48.838;8.828;2022-08-19T13:16:09;6.80;;;6.20;;
67749;SDS011;54550;48.838;8.828;2022-08-19T13:18:36;9.37;;;6.13;;
67749;SDS011;54550;48.838;8.828;2022-08-19T13:21:03;8.53;;;5.50;;
67749;SDS011;54550;48.838;8.828;2022-08-19T13:23:30;6.90;;;6.23;;
67749;SDS011;54550;48.838;8.828;2022-08-19T13:26:00;10.90;;;5.90;;
67749;SDS011;54550;48.838;8.828;2022-08-19T13:28:27;6.73;;;5.87;;
67749;SDS011;54550;48.838;8.828;2022-08-19T13:31:14;7.83;;;6.30;;
67749;SDS011;54550;48.838;8.828;2022-08-19T13:36:36;17.30;;;7.50;;
67749;SDS011;54550;48.838;8.828;2022-08-19T13:39:02;8.60;;;7.07;;
67749;SDS011;54550;48.838;8.828;2022-08-19T13:41:29;8.37;;;6.90;;
67749;SDS011;54550;48.838;8.828;2022-08-19T13:43:55;8.93;;;6.50;;
67749;SDS011;54550;48.838;8.828;2022-08-19T13:46:21;8.20;;;7.07;;
67749;SDS011;54550;48.838;8.828;2022-08-19T13:48:47;8.73;;;7.00;;
67749;SDS011;54550;48.838;8.828;2022-08-19T13:51:14;12.23;;;6.53;;
67749;SDS011;54550;48.838;8.828;2022-08-19T13:53:41;9.10;;;7.10;;
67749;SDS011;54550;48.838;8.828;2022-08-19T13:56:08;15.77;;;6.10;;
67749;SDS011;54550;48.838;8.828;2022-08-19T13:58:35;8.23;;;6.37;;
67749;SDS011;54550;48.838;8.828;2022-08-19T14:01:02;6.63;;;5.93;;
67749;SDS011;54550;48.838;8.828;2022-08-19T14:03:29;8.80;;;6.30;;
67749;SDS011;54550;48.838;8.828;2022-08-19T14:05:55;8.47;;;5.80;;
67749;SDS011;54550;48.838;8.828;2022-08-19T14:08:22;6.87;;;6.23;;
67749;SDS011;54550;48.838;8.828;2022-08-19T14:10:48;12.50;;;6.70;;
67749;SDS011;54550;48.838;8.828;2022-08-19T14:13:18;6.87;;;6.27;;
67749;SDS011;54550;48.838;8.828;2022-08-19T14:15:44;6.93;;;6.23;;
67749;SDS011;54550;48.838;8.828;2022-08-19T14:18:10;6.77;;;5.43;;
67749;SDS011;54550;48.838;8.828;2022-08-19T14:20:37;13.23;;;5.50;;
67749;SDS011;54550;48.838;8.828;2022-08-19T14:23:03;8.20;;;5.80;;
67749;SDS011;54550;48.838;8.828;2022-08-19T14:25:33;6.60;;;6.00;;
67749;SDS011;54550;48.838;8.828;2022-08-19T14:27:59;11.20;;;5.70;;
67749;SDS011;54550;48.838;8.828;2022-08-19T14:30:27;6.40;;;5.60;;
67749;SDS011;54550;48.838;8.828;2022-08-19T14:32:54;6.87;;;6.17;;
67749;SDS011;54550;48.838;8.828;2022-08-19T14:35:21;7.40;;;5.60;;
67749;SDS011;54550;48.838;8.828;2022-08-19T14:37:48;8.03;;;5.67;;
67749;SDS011;54550;48.838;8.828;2022-08-19T14:40:16;6.10;;;5.50;;
67749;SDS011;54550;48.838;8.828;2022-08-19T14:42:45;5.90;;;5.40;;
67749;SDS011;54550;48.838;8.828;2022-08-19T14:45:12;7.10;;;5.57;;
67749;SDS011;54550;48.838;8.828;2022-08-19T14:47:38;9.33;;;6.13;;
67749;SDS011;54550;48.838;8.828;2022-08-19T14:50:05;6.53;;;5.83;;
67749;SDS011;54550;48.838;8.828;2022-08-19T14:55:00;9.90;;;5.60;;
67749;SDS011;54550;48.838;8.828;2022-08-19T14:57:26;5.23;;;4.73;;
67749;SDS011;54550;48.838;8.828;2022-08-19T14:59:52;7.90;;;5.83;;
67749;SDS011;54550;48.838;8.828;2022-08-19T15:02:19;5.63;;;4.73;;
67749;SDS011;54550;48.838;8.828;2022-08-19T15:04:45;6.13;;;5.20;;
67749;SDS011;54550;48.838;8.828;2022-08-19T15:07:11;5.50;;;5.00;;
67749;SDS011;54550;48.838;8.828;2022-08-19T15:12:03;5.17;;;4.70;;
67749;SDS011;54550;48.838;8.828;2022-08-19T15:14:30;9.77;;;5.80;;
67749;SDS011;54550;48.838;8.828;2022-08-19T15:27:22;11.53;;;4.13;;
67749;SDS011;54550;48.838;8.828;2022-08-19T15:29:48;5.10;;;4.60;;
67749;SDS011;54550;48.838;8.828;2022-08-19T15:32:14;5.60;;;4.83;;
67749;SDS011;54550;48.838;8.828;2022-08-19T15:34:42;5.77;;;4.70;;
67749;SDS011;54550;48.838;8.828;2022-08-19T15:37:08;10.37;;;4.90;;
67749;SDS011;54550;48.838;8.828;2022-08-19T15:39:34;4.87;;;4.23;;
67749;SDS011;54550;48.838;8.828;2022-08-19T15:42:00;6.60;;;4.40;;
67749;SDS011;54550;48.838;8.828;2022-08-19T15:44:27;17.17;;;4.37;;
67749;SDS011;54550;48.838;8.828;2022-08-19T15:46:54;9.40;;;4.53;;
67749;SDS011;54550;48.838;8.828;2022-08-19T15:49:20;5.37;;;4.67;;
67749;SDS011;54550;48.838;8.828;2022-08-19T15:51:46;7.47;;;5.00;;
67749;SDS011;54550;48.838;8.828;2022-08-19T15:56:49;6.10;;;4.10;;
67749;SDS011;54550;48.838;8.828;2022-08-19T15:59:35;5.57;;;5.07;;
67749;SDS011;54550;48.838;8.828;2022-08-19T16:02:28;6.20;;;4.43;;
67749;SDS011;54550;48.838;8.828;2022-08-19T16:05:15;6.30;;;4.70;;
67749;SDS011;54550;48.838;8.828;2022-08-19T16:08:00;7.67;;;4.23;;
67749;SDS011;54550;48.838;8.828;2022-08-19T16:10:26;8.57;;;4.40;;
67749;SDS011;54550;48.838;8.828;2022-08-19T16:12:52;7.40;;;4.00;;
67749;SDS011;54550;48.838;8.828;2022-08-19T16:15:18;3.83;;;3.40;;
67749;SDS011;54550;48.838;8.828;2022-08-19T16:17:45;5.80;;;4.83;;
67749;SDS011;54550;48.838;8.828;2022-08-19T16:20:11;6.20;;;4.30;;
67749;SDS011;54550;48.838;8.828;2022-08-19T16:22:38;5.47;;;4.93;;
67749;SDS011;54550;48.838;8.828;2022-08-19T16:25:05;4.93;;;4.20;;
67749;SDS011;54550;48.838;8.828;2022-08-19T16:27:32;6.73;;;4.43;;
67749;SDS011;54550;48.838;8.828;2022-08-19T16:29:59;6.20;;;4.30;;
67749;SDS011;54550;48.838;8.828;2022-08-19T16:32:25;5.27;;;3.60;;
67749;SDS011;54550;48.838;8.828;2022-08-19T16:37:19;4.93;;;4.20;;
67749;SDS011;54550;48.838;8.828;2022-08-19T16:39:47;10.60;;;4.47;;
67749;SDS011;54550;48.838;8.828;2022-08-19T16:42:13;4.53;;;4.13;;
67749;SDS011;54550;48.838;8.828;2022-08-19T16:44:40;14.43;;;5.40;;
67749;SDS011;54550;48.838;8.828;2022-08-19T16:49:42;7.47;;;4.33;;
67749;SDS011;54550;48.838;8.828;2022-08-19T16:52:08;5.20;;;4.70;;
67749;SDS011;54550;48.838;8.828;2022-08-19T16:59:39;5.80;;;4.80;;
67749;SDS011;54550;48.838;8.828;2022-08-19T17:02:05;9.60;;;4.30;;
67749;SDS011;54550;48.838;8.828;2022-08-19T17:04:31;5.20;;;4.70;;
67749;SDS011;54550;48.838;8.828;2022-08-19T17:09:34;4.53;;;4.13;;
67749;SDS011;54550;48.838;8.828;2022-08-19T17:12:00;8.40;;;4.37;;
67749;SDS011;54550;48.838;8.828;2022-08-19T17:14:26;8.10;;;4.10;;
67749;SDS011;54550;48.838;8.828;2022-08-19T17:16:52;7.77;;;4.07;;
67749;SDS011;54550;48.838;8.828;2022-08-19T17:21:48;4.40;;;4.00;;
67749;SDS011;54550;48.838;8.828;2022-08-19T17:26:45;4.87;;;4.43;;
67749;SDS011;54550;48.838;8.828;2022-08-19T17:31:39;6.40;;;5.77;;
67749;SDS011;54550;48.838;8.828;2022-08-19T17:34:05;9.23;;;5.00;;
67749;SDS011;54550;48.838;8.828;2022-08-19T17:36:33;3.97;;;3.50;;
67749;SDS011;54550;48.838;8.828;2022-08-19T17:41:34;5.30;;;4.30;;
67749;SDS011;54550;48.838;8.828;2022-08-19T17:44:01;5.97;;;5.10;;
67749;SDS011;54550;48.838;8.828;2022-08-19T17:46:27;12.53;;;9.47;;
67749;SDS011;54550;48.838;8.828;2022-08-19T17:48:54;6.07;;;5.47;;
67749;SDS011;54550;48.838;8.828;2022-08-19T17:54:06;9.83;;;4.27;;
67749;SDS011;54550;48.838;8.828;2022-08-19T17:56:32;3.80;;;3.50;;
67749;SDS011;54550;48.838;8.828;2022-08-19T18:01:31;4.67;;;4.27;;
67749;SDS011;54550;48.838;8.828;2022-08-19T18:03:57;4.67;;;4.20;;
67749;SDS011;54550;48.838;8.828;2022-08-19T18:06:23;5.93;;;5.27;;
67749;SDS011;54550;48.838;8.828;2022-08-19T18:08:49;9.63;;;5.00;;
67749;SDS011;54550;48.838;8.828;2022-08-19T18:11:15;5.77;;;5.10;;
67749;SDS011;54550;48.838;8.828;2022-08-19T18:13:41;12.80;;;6.97;;
67749;SDS011;54550;48.838;8.828;2022-08-19T18:16:08;7.23;;;6.20;;
67749;SDS011;54550;48.838;8.828;2022-08-19T18:18:35;6.77;;;6.07;;
67749;SDS011;54550;48.838;8.828;2022-08-19T18:21:02;7.13;;;6.43;;
67749;SDS011;54550;48.838;8.828;2022-08-19T18:23:28;6.60;;;6.00;;
67749;SDS011;54550;48.838;8.828;2022-08-19T18:25:55;7.10;;;6.23;;
67749;SDS011;54550;48.838;8.828;2022-08-19T18:28:21;7.10;;;6.40;;
67749;SDS011;54550;48.838;8.828;2022-08-19T18:30:49;7.97;;;6.80;;
67749;SDS011;54550;48.838;8.828;2022-08-19T18:33:16;10.33;;;7.33;;
67749;SDS011;54550;48.838;8.828;2022-08-19T18:35:42;8.60;;;6.70;;
67749;SDS011;54550;48.838;8.828;2022-08-19T18:38:10;6.80;;;6.20;;
67749;SDS011;54550;48.838;8.828;2022-08-19T18:40:55;8.60;;;6.90;;
67749;SDS011;54550;48.838;8.828;2022-08-19T18:43:39;19.70;;;7.20;;
67749;SDS011;54550;48.838;8.828;2022-08-19T18:46:24;8.07;;;6.90;;
67749;SDS011;54550;48.838;8.828;2022-08-19T18:49:12;9.97;;;6.63;;
67749;SDS011;54550;48.838;8.828;2022-08-19T18:51:38;9.77;;;7.17;;
67749;SDS011;54550;48.838;8.828;2022-08-19T18:54:04;6.03;;;5.30;;
67749;SDS011;54550;48.838;8.828;2022-08-19T18:56:30;8.50;;;6.90;;
67749;SDS011;54550;48.838;8.828;2022-08-19T19:01:30;7.07;;;5.30;;
67749;SDS011;54550;48.838;8.828;2022-08-19T19:06:33;7.80;;;5.70;;
67749;SDS011;54550;48.838;8.828;2022-08-19T19:09:04;8.53;;;5.70;;
67749;SDS011;54550;48.838;8.828;2022-08-19T19:11:31;6.23;;;5.63;;
67749;SDS011;54550;48.838;8.828;2022-08-19T19:13:58;8.80;;;5.80;;
67749;SDS011;54550;48.838;8.828;2022-08-19T19:16:28;6.63;;;5.50;;
67749;SDS011;54550;48.838;8.828;2022-08-19T19:18:54;9.50;;;5.03;;
67749;SDS011;54550;48.838;8.828;2022-08-19T19:21:21;5.77;;;5.10;;
67749;SDS011;54550;48.838;8.828;2022-08-19T19:23:48;13.93;;;5.40;;
67749;SDS011;54550;48.838;8.828;2022-08-19T19:26:14;6.80;;;6.03;;
67749;SDS011;54550;48.838;8.828;2022-08-19T19:28:40;6.63;;;5.23;;
67749;SDS011;54550;48.838;8.828;2022-08-19T19:31:20;4.97;;;4.57;;
67749;SDS011;54550;48.838;8.828;2022-08-19T19:38:48;5.13;;;4.63;;
67749;SDS011;54550;48.838;8.828;2022-08-19T19:43:51;5.60;;;4.40;;